createdAt,value
2023-07-18T00:00:11.597Z,79.59
2023-07-18T00:01:34.041Z,79.28
2023-07-18T00:02:57.141Z,78.87
2023-07-18T00:04:19.188Z,78.78
2023-07-18T00:05:42.800Z,78.70
2023-07-18T00:07:07.310Z,78.96
2023-07-18T00:08:30.207Z,79.75
2023-07-18T00:09:52.143Z,80.08
2023-07-18T00:11:15.214Z,81.14
2023-07-18T00:12:37.529Z,81.83
2023-07-18T00:14:00.897Z,82.00
2023-07-18T00:15:23.314Z,83.07
2023-07-18T00:16:46.279Z,82.07
2023-07-18T00:18:08.556Z,81.70
2023-07-18T00:19:31.620Z,80.55
2023-07-18T00:20:53.629Z,81.85
2023-07-18T00:22:18.263Z,81.24
2023-07-18T00:23:40.265Z,79.76
2023-07-18T00:25:03.242Z,79.38
2023-07-18T00:26:25.436Z,79.34
2023-07-18T00:27:51.060Z,78.34
2023-07-18T00:29:13.141Z,77.42
2023-07-18T00:30:36.091Z,77.57
2023-07-18T00:31:58.442Z,78.11
2023-07-18T00:33:21.444Z,78.47
2023-07-18T00:34:45.718Z,80.17
2023-07-18T00:36:08.780Z,80.03
2023-07-18T00:37:32.570Z,79.59
2023-07-18T00:38:55.470Z,80.27
2023-07-18T00:40:17.496Z,79.64
2023-07-18T00:41:41.050Z,79.16
2023-07-18T00:43:03.072Z,79.86
2023-07-18T00:44:26.351Z,79.60
2023-07-18T00:45:50.483Z,79.92
2023-07-18T00:47:13.552Z,79.07
2023-07-18T00:48:35.766Z,79.31
2023-07-18T00:49:58.721Z,79.91
2023-07-18T00:51:21.211Z,78.84
2023-07-18T00:52:52.587Z,80.16
2023-07-18T00:54:15.069Z,80.19
2023-07-18T00:55:38.681Z,79.29
2023-07-18T00:57:01.163Z,80.23
2023-07-18T00:58:25.614Z,79.98
2023-07-18T00:59:48.315Z,80.57
2023-07-18T01:01:11.367Z,80.93
2023-07-18T01:02:33.634Z,80.94
2023-07-18T01:03:56.624Z,83.03
2023-07-18T01:05:20.228Z,82.34
2023-07-18T01:06:43.648Z,81.25
2023-07-18T01:08:07.089Z,81.67
2023-07-18T01:09:30.288Z,81.54
2023-07-18T01:10:52.873Z,83.01
2023-07-18T01:12:16.052Z,82.77
2023-07-18T01:13:38.000Z,82.27
2023-07-18T01:15:00.975Z,81.14
2023-07-18T01:16:23.040Z,81.57
2023-07-18T01:17:47.333Z,83.19
2023-07-18T01:19:09.398Z,83.71
2023-07-18T01:20:34.268Z,83.61
2023-07-18T01:21:57.628Z,83.43
2023-07-18T01:23:22.392Z,84.86
2023-07-18T01:24:44.843Z,85.48
2023-07-18T01:26:07.718Z,85.01
2023-07-18T01:27:31.241Z,86.61
2023-07-18T01:28:54.642Z,84.54
2023-07-18T01:30:18.456Z,83.41
2023-07-18T01:31:41.453Z,82.04
2023-07-18T01:33:04.250Z,81.44
2023-07-18T01:34:27.423Z,83.76
2023-07-18T01:35:49.393Z,83.96
2023-07-18T01:37:16.311Z,83.43
2023-07-18T01:38:38.331Z,82.27
2023-07-18T01:40:01.667Z,81.50
2023-07-18T01:41:23.689Z,84.37
2023-07-18T01:42:46.592Z,84.91
2023-07-18T01:44:10.312Z,85.86
2023-07-18T01:45:32.342Z,86.96
2023-07-18T01:46:55.289Z,87.70
2023-07-18T01:48:17.778Z,88.36
2023-07-18T01:49:40.761Z,88.34
2023-07-18T01:51:04.525Z,89.30
2023-07-18T01:52:28.328Z,89.42
2023-07-18T01:53:51.276Z,88.95
2023-07-18T01:55:13.228Z,89.78
2023-07-18T01:56:36.552Z,89.98
2023-07-18T01:57:58.700Z,91.33
2023-07-18T01:59:23.326Z,89.77
2023-07-18T02:00:46.259Z,89.59
2023-07-18T02:02:08.284Z,88.39
2023-07-18T02:03:31.379Z,87.23
2023-07-18T02:04:53.398Z,86.20
2023-07-18T02:06:16.304Z,84.88
2023-07-18T02:07:39.630Z,84.24
2023-07-18T02:09:02.532Z,83.36
2023-07-18T02:10:26.101Z,82.56
2023-07-18T02:11:49.174Z,82.70
2023-07-18T02:13:11.244Z,82.46
2023-07-18T02:14:34.169Z,82.88
2023-07-18T02:15:57.144Z,83.42
2023-07-18T02:17:19.244Z,83.84
2023-07-18T02:18:42.870Z,83.93
2023-07-18T02:20:07.667Z,83.72
2023-07-18T02:21:30.782Z,84.40
2023-07-18T02:22:54.100Z,84.56
2023-07-18T02:24:17.034Z,85.44
2023-07-18T02:25:39.246Z,86.37
2023-07-18T02:27:02.645Z,85.69
2023-07-18T02:28:24.810Z,85.86
2023-07-18T02:29:48.452Z,86.13
2023-07-18T02:31:11.483Z,85.49
2023-07-18T02:32:34.060Z,87.33
2023-07-18T02:33:59.052Z,87.57
2023-07-18T02:35:23.156Z,87.40
2023-07-18T02:36:45.158Z,86.29
2023-07-18T02:38:09.665Z,86.38
2023-07-18T02:39:33.735Z,85.51
2023-07-18T02:40:56.775Z,85.42
2023-07-18T02:42:18.824Z,86.77
2023-07-18T02:43:41.773Z,87.58
2023-07-18T02:45:04.810Z,88.76
2023-07-18T02:46:27.891Z,90.77
2023-07-18T02:47:49.955Z,92.21
2023-07-18T02:49:12.982Z,91.79
2023-07-18T02:50:35.609Z,92.21
2023-07-18T02:51:58.550Z,90.29
2023-07-18T02:53:21.844Z,91.05
2023-07-18T02:54:44.754Z,90.70
2023-07-18T02:56:06.939Z,88.68
2023-07-18T02:57:29.952Z,87.91
2023-07-18T02:58:51.977Z,85.94
2023-07-18T03:00:21.444Z,85.16
2023-07-18T03:01:45.614Z,86.49
2023-07-18T03:03:08.861Z,86.78
2023-07-18T03:04:31.976Z,85.54
2023-07-18T03:05:55.640Z,86.52
2023-07-18T03:07:18.956Z,87.75
2023-07-18T03:08:44.304Z,85.96
2023-07-18T03:10:06.886Z,86.90
2023-07-18T03:11:29.890Z,88.74
2023-07-18T03:12:52.564Z,89.22
2023-07-18T03:14:15.753Z,91.15
2023-07-18T03:15:37.733Z,91.79
2023-07-18T03:17:01.101Z,91.80
2023-07-18T03:18:23.269Z,90.89
2023-07-18T03:19:46.276Z,89.77
2023-07-18T03:21:08.534Z,87.67
2023-07-18T03:22:31.555Z,87.16
2023-07-18T03:23:54.995Z,87.90
2023-07-18T03:25:20.941Z,87.66
2023-07-18T03:26:43.111Z,85.68
2023-07-18T03:28:06.072Z,83.80
2023-07-18T03:29:28.050Z,83.81
2023-07-18T03:30:51.270Z,83.22
2023-07-18T03:32:13.462Z,83.20
2023-07-18T03:33:36.479Z,83.31
2023-07-18T03:34:58.442Z,83.32
2023-07-18T03:36:21.612Z,83.84
2023-07-18T03:37:43.932Z,84.21
2023-07-18T03:39:08.278Z,85.64
2023-07-18T03:40:32.958Z,87.16
2023-07-18T03:41:56.053Z,88.66
2023-07-18T03:43:18.026Z,88.30
2023-07-18T03:44:41.197Z,86.52
2023-07-18T03:46:03.244Z,85.39
2023-07-18T03:47:26.253Z,84.97
2023-07-18T03:48:49.294Z,83.54
2023-07-18T03:50:16.136Z,83.10
2023-07-18T03:51:39.815Z,82.86
2023-07-18T03:53:02.751Z,82.21
2023-07-18T03:54:26.843Z,82.12
2023-07-18T03:55:50.369Z,83.07
2023-07-18T03:57:12.365Z,81.52
2023-07-18T03:58:35.690Z,80.96
2023-07-18T03:59:57.768Z,81.15
2023-07-18T04:01:21.013Z,81.63
2023-07-18T04:02:46.382Z,80.98
2023-07-18T04:04:10.649Z,80.50
2023-07-18T04:05:32.742Z,80.79
2023-07-18T04:06:55.675Z,81.40
2023-07-18T04:08:17.708Z,80.91
2023-07-18T04:09:42.086Z,80.58
2023-07-18T04:11:04.066Z,80.93
2023-07-18T04:12:27.009Z,81.54
2023-07-18T04:13:49.994Z,83.35
2023-07-18T04:15:13.436Z,83.04
2023-07-18T04:16:36.485Z,82.54
2023-07-18T04:17:58.493Z,81.85
2023-07-18T04:19:21.684Z,81.48
2023-07-18T04:20:43.648Z,80.81
2023-07-18T04:22:06.723Z,80.95
2023-07-18T04:23:29.016Z,81.76
2023-07-18T04:24:56.301Z,82.62
2023-07-18T04:26:19.261Z,83.39
2023-07-18T04:27:41.288Z,83.73
2023-07-18T04:29:06.169Z,83.88
2023-07-18T04:30:28.205Z,85.04
2023-07-18T04:31:51.280Z,84.69
2023-07-18T04:33:13.954Z,85.10
2023-07-18T04:34:37.640Z,85.37
2023-07-18T04:35:59.644Z,84.94
2023-07-18T04:37:22.749Z,84.60
2023-07-18T04:38:45.204Z,83.67
2023-07-18T04:40:11.250Z,83.30
2023-07-18T04:41:41.646Z,83.99
2023-07-18T04:43:09.041Z,83.36
2023-07-18T04:44:31.449Z,82.56
2023-07-18T04:45:54.537Z,81.45
2023-07-18T04:47:16.530Z,81.36
2023-07-18T04:48:40.206Z,80.77
2023-07-18T04:50:02.229Z,80.38
2023-07-18T04:51:25.677Z,79.46
2023-07-18T04:52:47.617Z,79.56
2023-07-18T04:54:10.554Z,79.82
2023-07-18T04:55:35.651Z,79.15
2023-07-18T04:56:58.665Z,79.18
2023-07-18T04:58:21.269Z,79.40
2023-07-18T04:59:44.268Z,79.31
2023-07-18T05:01:06.230Z,78.03
2023-07-18T05:02:29.317Z,77.75
2023-07-18T05:03:58.012Z,77.52
2023-07-18T05:05:21.599Z,77.17
2023-07-18T05:06:43.548Z,77.51
2023-07-18T05:08:06.813Z,77.21
2023-07-18T05:09:29.289Z,77.06
2023-07-18T05:10:53.679Z,78.02
2023-07-18T05:12:15.690Z,78.44
2023-07-18T05:13:38.708Z,76.48
2023-07-18T05:15:01.677Z,76.86
2023-07-18T05:16:24.856Z,75.60
2023-07-18T05:17:47.659Z,76.25
2023-07-18T05:19:10.723Z,77.90
2023-07-18T05:20:33.198Z,78.29
2023-07-18T05:21:56.318Z,79.76
2023-07-18T05:23:18.300Z,78.60
2023-07-18T05:24:41.262Z,76.75
2023-07-18T05:26:05.163Z,76.50
2023-07-18T05:27:28.117Z,77.05
2023-07-18T05:28:50.113Z,75.85
2023-07-18T05:30:14.355Z,76.05
2023-07-18T05:31:36.356Z,75.66
2023-07-18T05:32:59.400Z,75.57
2023-07-18T05:34:23.585Z,76.15
2023-07-18T05:35:46.577Z,75.71
2023-07-18T05:37:08.601Z,75.47
2023-07-18T05:38:31.592Z,74.29
2023-07-18T05:39:53.594Z,72.90
2023-07-18T05:41:18.204Z,73.07
2023-07-18T05:42:41.509Z,73.31
2023-07-18T05:44:04.617Z,73.27
2023-07-18T05:45:26.625Z,73.03
2023-07-18T05:46:49.660Z,72.29
2023-07-18T05:48:12.652Z,72.95
2023-07-18T05:49:35.102Z,73.54
2023-07-18T05:50:58.160Z,74.25
2023-07-18T05:52:20.397Z,74.05
2023-07-18T05:53:43.342Z,74.14
2023-07-18T05:55:06.587Z,72.95
2023-07-18T05:56:30.972Z,71.88
2023-07-18T05:57:52.936Z,71.88
2023-07-18T05:59:16.019Z,71.58
2023-07-18T06:00:38.197Z,71.07
2023-07-18T06:02:04.004Z,70.00
2023-07-18T06:03:26.251Z,69.83
2023-07-18T06:04:49.694Z,70.20
2023-07-18T06:06:12.370Z,69.75
2023-07-18T06:07:35.574Z,69.35
2023-07-18T06:08:57.920Z,70.19
2023-07-18T06:10:21.100Z,69.70
2023-07-18T06:11:46.798Z,69.21
2023-07-18T06:13:10.030Z,69.85
2023-07-18T06:14:32.153Z,70.14
2023-07-18T06:15:55.141Z,70.07
2023-07-18T06:17:17.618Z,69.72
2023-07-18T06:18:42.735Z,69.36
2023-07-18T06:20:10.312Z,69.77
2023-07-18T06:21:32.430Z,69.96
2023-07-18T06:22:56.170Z,70.50
2023-07-18T06:24:19.788Z,69.76
2023-07-18T06:25:43.311Z,69.84
2023-07-18T06:27:07.087Z,69.37
2023-07-18T06:28:30.106Z,69.10
2023-07-18T06:29:52.110Z,68.61
2023-07-18T06:31:15.604Z,68.08
2023-07-18T06:32:37.729Z,68.67
2023-07-18T06:34:00.918Z,68.97
2023-07-18T06:35:24.247Z,68.26
2023-07-18T06:36:48.233Z,68.54
2023-07-18T06:38:10.392Z,67.72
2023-07-18T06:39:33.380Z,67.85
2023-07-18T06:40:56.493Z,67.59
2023-07-18T06:42:20.898Z,67.45
2023-07-18T06:43:42.995Z,68.27
2023-07-18T06:45:07.330Z,68.79
2023-07-18T06:46:29.330Z,69.22
2023-07-18T06:47:52.379Z,69.22
2023-07-18T06:49:14.578Z,69.46
2023-07-18T06:50:37.907Z,69.13
2023-07-18T06:52:00.040Z,67.96
2023-07-18T06:53:23.417Z,67.88
2023-07-18T06:54:45.415Z,67.70
2023-07-18T06:56:08.365Z,67.13
2023-07-18T06:57:31.733Z,66.81
2023-07-18T06:58:54.757Z,67.43
2023-07-18T07:00:17.853Z,66.49
2023-07-18T07:01:41.051Z,67.01
2023-07-18T07:03:03.586Z,66.45
2023-07-18T07:04:26.641Z,66.17
2023-07-18T07:05:48.673Z,65.83
2023-07-18T07:07:12.140Z,65.45
2023-07-18T07:08:34.257Z,65.22
2023-07-18T07:09:57.307Z,65.12
2023-07-18T07:11:19.470Z,64.74
2023-07-18T07:12:44.130Z,64.57
2023-07-18T07:14:06.231Z,64.44
2023-07-18T07:15:29.235Z,64.61
2023-07-18T07:16:51.365Z,65.12
2023-07-18T07:18:14.947Z,66.78
2023-07-18T07:19:37.130Z,66.69
2023-07-18T07:21:00.652Z,65.88
2023-07-18T07:22:22.754Z,65.18
2023-07-18T07:23:45.694Z,64.55
2023-07-18T07:25:08.560Z,65.01
2023-07-18T07:26:31.662Z,64.17
2023-07-18T07:27:55.450Z,64.03
2023-07-18T07:29:19.582Z,64.27
2023-07-18T07:30:41.700Z,64.06
2023-07-18T07:32:05.099Z,64.27
2023-07-18T07:33:27.287Z,64.33
2023-07-18T07:34:50.268Z,63.27
2023-07-18T07:36:12.349Z,63.39
2023-07-18T07:37:35.578Z,63.99
2023-07-18T07:38:57.527Z,63.20
2023-07-18T07:40:21.068Z,62.87
2023-07-18T07:41:44.025Z,62.27
2023-07-18T07:43:07.379Z,62.02
2023-07-18T07:44:30.367Z,62.36
2023-07-18T07:45:52.649Z,61.68
2023-07-18T07:47:15.569Z,61.79
2023-07-18T07:48:37.739Z,62.35
2023-07-18T07:50:01.974Z,61.68
2023-07-18T07:51:24.195Z,60.73
2023-07-18T07:52:47.545Z,60.91
2023-07-18T07:54:09.595Z,61.24
2023-07-18T07:55:33.087Z,59.34
2023-07-18T07:56:55.106Z,58.63
2023-07-18T07:58:19.664Z,58.33
2023-07-18T07:59:42.089Z,59.20
2023-07-18T08:01:05.238Z,59.58
2023-07-18T08:02:29.589Z,59.38
2023-07-18T08:03:52.662Z,59.39
2023-07-18T08:05:14.765Z,59.66
2023-07-18T08:06:37.927Z,59.00
2023-07-18T08:08:00.903Z,57.83
2023-07-18T08:10:46.136Z,58.14
2023-07-18T08:12:09.412Z,57.84
2023-07-18T08:13:34.015Z,57.75
2023-07-18T08:14:56.018Z,57.96
2023-07-18T08:16:19.060Z,58.25
2023-07-18T08:17:41.163Z,57.62
2023-07-18T08:19:04.316Z,56.69
2023-07-18T08:20:26.682Z,57.76
2023-07-18T08:21:49.677Z,57.79
2023-07-18T08:23:12.717Z,57.17
2023-07-18T08:24:34.796Z,57.96
2023-07-18T08:25:57.974Z,58.07
2023-07-18T08:27:19.929Z,58.02
2023-07-18T08:28:44.304Z,57.48
2023-07-18T08:30:07.572Z,56.71
2023-07-18T08:31:31.544Z,56.59
2023-07-18T08:32:55.440Z,56.72
2023-07-18T08:34:25.996Z,55.84
2023-07-18T08:35:50.035Z,56.42
2023-07-18T08:37:14.216Z,57.20
2023-07-18T08:38:36.305Z,56.59
2023-07-18T08:39:59.886Z,56.07
2023-07-18T08:41:22.886Z,55.68
2023-07-18T08:42:46.895Z,56.12
2023-07-18T08:44:10.747Z,55.22
2023-07-18T08:45:38.612Z,55.54
2023-07-18T08:47:03.856Z,55.53
2023-07-18T08:48:26.843Z,54.23
2023-07-18T08:49:49.329Z,53.50
2023-07-18T08:51:13.057Z,54.06
2023-07-18T08:52:35.146Z,54.98
2023-07-18T08:53:58.468Z,53.29
2023-07-18T08:55:22.715Z,53.57
2023-07-18T08:56:46.042Z,54.67
2023-07-18T08:58:08.545Z,54.80
2023-07-18T08:59:33.281Z,54.29
2023-07-18T09:00:55.439Z,55.37
2023-07-18T09:02:18.412Z,55.02
2023-07-18T09:03:41.135Z,55.24
2023-07-18T09:05:04.323Z,54.80
2023-07-18T09:06:26.386Z,54.55
2023-07-18T09:07:49.410Z,54.04
2023-07-18T09:09:16.995Z,54.96
2023-07-18T09:10:40.231Z,54.19
2023-07-18T09:12:05.579Z,54.41
2023-07-18T09:13:29.129Z,54.70
2023-07-18T09:14:56.880Z,54.25
2023-07-18T09:16:22.113Z,54.54
2023-07-18T09:17:49.257Z,54.70
2023-07-18T09:19:12.617Z,53.40
2023-07-18T09:20:35.053Z,52.64
2023-07-18T09:22:00.670Z,53.25
2023-07-18T09:23:22.827Z,52.41
2023-07-18T09:24:49.126Z,53.01
2023-07-18T09:26:13.961Z,53.59
2023-07-18T09:27:38.131Z,52.39
2023-07-18T09:29:00.779Z,52.70
2023-07-18T09:30:29.627Z,52.26
2023-07-18T09:31:51.798Z,52.24
2023-07-18T09:33:14.993Z,52.40
2023-07-18T09:34:37.061Z,51.37
2023-07-18T09:36:00.196Z,51.40
2023-07-18T09:37:22.453Z,51.35
2023-07-18T09:38:46.683Z,49.91
2023-07-18T09:40:11.433Z,50.25
2023-07-18T09:41:35.397Z,50.39
2023-07-18T09:43:01.527Z,50.09
2023-07-18T09:44:33.159Z,50.85
2023-07-18T09:45:57.896Z,50.94
2023-07-18T09:47:21.832Z,50.47
2023-07-18T09:48:46.533Z,50.06
2023-07-18T09:50:11.233Z,49.93
2023-07-18T09:51:34.377Z,50.07
2023-07-18T09:53:00.241Z,49.49
2023-07-18T09:54:22.904Z,48.43
2023-07-18T09:55:47.091Z,49.79
2023-07-18T09:57:11.299Z,50.02
2023-07-18T09:58:40.364Z,49.94
2023-07-18T10:00:06.855Z,50.84
2023-07-18T10:01:31.958Z,49.48
2023-07-18T10:02:57.773Z,50.25
2023-07-18T10:04:20.153Z,49.34
2023-07-18T10:05:44.108Z,49.68
2023-07-18T10:07:09.957Z,49.28
2023-07-18T10:08:33.668Z,47.05
2023-07-18T10:09:55.997Z,48.38
2023-07-18T10:11:19.383Z,48.96
2023-07-18T10:12:59.817Z,48.21
2023-07-18T10:14:22.753Z,48.10
2023-07-18T10:16:20.049Z,48.47
2023-07-18T10:17:44.492Z,47.93
2023-07-18T10:19:17.126Z,47.63
2023-07-18T10:20:40.780Z,48.99
2023-07-18T10:22:03.331Z,47.98
2023-07-18T10:23:41.957Z,46.94
2023-07-18T10:25:08.257Z,46.03
2023-07-18T10:26:32.449Z,44.64
2023-07-18T10:27:55.559Z,44.80
2023-07-18T10:29:18.147Z,43.61
2023-07-18T10:30:43.770Z,44.13
2023-07-18T10:32:10.104Z,44.72
2023-07-18T10:33:34.463Z,43.54
2023-07-18T10:34:56.467Z,43.74
2023-07-18T10:36:26.299Z,44.20
2023-07-18T10:37:54.423Z,43.42
2023-07-18T10:39:16.486Z,43.48
2023-07-18T10:40:44.686Z,43.65
2023-07-18T10:42:08.882Z,41.45
2023-07-18T10:43:33.541Z,41.52
2023-07-18T10:44:56.921Z,42.05
2023-07-18T10:46:21.130Z,42.05
2023-07-18T10:47:43.333Z,42.30
2023-07-18T10:49:08.056Z,42.48
2023-07-18T10:50:30.173Z,40.44
2023-07-18T10:51:56.052Z,40.28
2023-07-18T10:53:19.967Z,40.13
2023-07-18T10:54:45.349Z,40.13
2023-07-18T10:56:08.305Z,39.37
2023-07-18T10:57:33.685Z,38.99
2023-07-18T10:58:56.720Z,41.52
2023-07-18T11:00:21.278Z,43.33
2023-07-18T11:01:43.717Z,42.50
2023-07-18T11:03:06.753Z,40.54
2023-07-18T11:04:30.210Z,40.53
2023-07-18T11:05:54.713Z,40.68
2023-07-18T11:07:16.806Z,40.08
2023-07-18T11:08:39.785Z,40.45
2023-07-18T11:10:02.278Z,39.38
2023-07-18T11:11:25.340Z,40.03
2023-07-18T11:12:47.536Z,39.77
2023-07-18T11:14:10.477Z,38.55
2023-07-18T11:15:32.614Z,39.65
2023-07-18T11:16:56.501Z,39.61
2023-07-18T11:18:19.092Z,39.51
2023-07-18T11:19:43.725Z,38.61
2023-07-18T11:21:07.179Z,37.85
2023-07-18T11:22:30.825Z,38.83
2023-07-18T11:23:53.924Z,38.22
2023-07-18T11:25:17.055Z,37.04
2023-07-18T11:26:39.348Z,37.60
2023-07-18T11:28:05.556Z,36.11
2023-07-18T11:29:27.682Z,36.81
2023-07-18T11:30:52.255Z,39.13
2023-07-18T11:32:14.284Z,39.80
2023-07-18T11:33:37.313Z,37.77
2023-07-18T11:35:01.257Z,36.41
2023-07-18T11:36:25.090Z,38.56
2023-07-18T11:37:49.314Z,37.72
2023-07-18T11:39:21.533Z,36.04
2023-07-18T11:40:44.350Z,37.75
2023-07-18T11:42:09.710Z,37.79
2023-07-18T11:43:31.707Z,37.53
2023-07-18T11:44:54.904Z,37.39
2023-07-18T11:46:16.964Z,37.33
2023-07-18T11:47:44.959Z,37.94
2023-07-18T11:49:07.588Z,38.92
2023-07-18T11:50:32.344Z,37.73
2023-07-18T11:51:54.339Z,37.28
2023-07-18T11:53:26.105Z,37.72
2023-07-18T11:54:48.343Z,37.34
2023-07-18T11:56:11.297Z,37.60
2023-07-18T11:57:33.236Z,38.03
2023-07-18T11:58:57.675Z,37.80
2023-07-18T12:00:20.672Z,36.85
2023-07-18T12:01:44.476Z,37.37
2023-07-18T12:03:06.671Z,37.27
2023-07-18T12:04:29.632Z,37.54
2023-07-18T12:05:53.889Z,37.70
2023-07-18T12:07:15.807Z,38.43
2023-07-18T12:08:38.764Z,38.54
2023-07-18T12:10:01.082Z,38.12
2023-07-18T12:11:24.608Z,37.11
2023-07-18T12:12:47.847Z,36.29
2023-07-18T12:14:10.201Z,36.44
2023-07-18T12:15:34.715Z,36.32
2023-07-18T12:16:58.860Z,36.60
2023-07-18T12:18:21.868Z,36.37
2023-07-18T12:19:45.347Z,36.53
2023-07-18T12:21:09.536Z,37.03
2023-07-18T12:22:31.850Z,36.94
2023-07-18T12:23:54.843Z,38.08
2023-07-18T12:25:17.298Z,37.84
2023-07-18T12:26:40.195Z,36.88
2023-07-18T12:28:03.585Z,37.45
2023-07-18T12:29:26.523Z,37.45
2023-07-18T12:30:48.667Z,38.61
2023-07-18T12:32:12.148Z,38.82
2023-07-18T12:33:34.433Z,37.76
2023-07-18T12:34:57.467Z,37.75
2023-07-18T12:36:21.317Z,37.78
2023-07-18T12:37:44.457Z,37.57
2023-07-18T12:39:07.175Z,37.38
2023-07-18T12:40:30.158Z,38.88
2023-07-18T12:41:52.138Z,37.48
2023-07-18T12:43:15.076Z,37.06
2023-07-18T12:44:38.929Z,37.48
2023-07-18T12:46:02.501Z,37.58
2023-07-18T12:47:24.503Z,37.14
2023-07-18T12:50:13.984Z,36.82
2023-07-18T12:51:37.410Z,37.49
2023-07-18T12:53:00.689Z,37.79
2023-07-18T12:54:22.659Z,38.30
2023-07-18T12:55:46.598Z,37.62
2023-07-18T12:57:08.702Z,37.20
2023-07-18T12:58:31.603Z,37.28
2023-07-18T12:59:54.036Z,37.78
2023-07-18T13:01:17.492Z,38.48
2023-07-18T13:02:39.654Z,37.19
2023-07-18T13:04:04.686Z,38.54
2023-07-18T13:05:27.728Z,36.68
2023-07-18T13:06:51.369Z,37.37
2023-07-18T13:08:14.393Z,37.50
2023-07-18T13:09:37.827Z,36.85
2023-07-18T13:11:00.854Z,36.63
2023-07-18T13:12:22.882Z,37.42
2023-07-18T13:13:47.450Z,37.43
2023-07-18T13:15:09.876Z,36.70
2023-07-18T13:16:32.828Z,36.70
2023-07-18T13:17:55.070Z,37.75
2023-07-18T13:19:18.268Z,38.19
2023-07-18T13:20:41.942Z,38.17
2023-07-18T13:22:06.899Z,37.71
2023-07-18T13:23:28.846Z,38.69
2023-07-18T13:24:51.803Z,38.03
2023-07-18T13:26:16.638Z,37.41
2023-07-18T13:27:42.319Z,38.11
2023-07-18T13:29:04.844Z,37.15
2023-07-18T13:30:27.885Z,37.46
2023-07-18T13:31:49.869Z,36.77
2023-07-18T13:33:12.837Z,37.29
2023-07-18T13:34:36.434Z,36.92
2023-07-18T13:35:59.226Z,37.39
2023-07-18T13:37:23.756Z,36.84
2023-07-18T13:38:45.770Z,37.03
2023-07-18T13:40:10.023Z,36.93
2023-07-18T13:41:32.977Z,36.83
2023-07-18T13:42:56.079Z,37.44
2023-07-18T13:44:19.021Z,37.88
2023-07-18T13:45:42.038Z,37.59
2023-07-18T13:47:04.650Z,38.89
2023-07-18T13:48:27.668Z,37.76
2023-07-18T13:49:50.523Z,38.23
2023-07-18T13:51:14.056Z,38.25
2023-07-18T13:52:38.397Z,38.46
2023-07-18T13:54:00.407Z,37.69
2023-07-18T13:55:23.334Z,36.91
2023-07-18T13:56:45.315Z,37.27
2023-07-18T13:58:08.465Z,36.95
2023-07-18T13:59:30.484Z,37.79
2023-07-18T14:00:53.674Z,37.92
2023-07-18T14:02:15.785Z,36.38
2023-07-18T14:03:38.786Z,37.04
2023-07-18T14:05:00.856Z,37.19
2023-07-18T14:06:23.823Z,36.96
2023-07-18T14:07:47.137Z,36.62
2023-07-18T14:09:10.046Z,36.32
2023-07-18T14:10:32.083Z,36.95
2023-07-18T14:11:56.103Z,36.92
2023-07-18T14:13:19.354Z,35.43
2023-07-18T14:14:42.365Z,36.24
2023-07-18T14:16:05.342Z,36.45
2023-07-18T14:17:29.966Z,36.48
2023-07-18T14:18:52.606Z,37.04
2023-07-18T14:20:15.963Z,37.19
2023-07-18T14:21:38.265Z,36.51
2023-07-18T14:23:03.868Z,37.30
2023-07-18T14:24:25.872Z,36.90
2023-07-18T14:25:49.405Z,38.00
2023-07-18T14:27:13.462Z,37.22
2023-07-18T14:28:36.448Z,37.50
2023-07-18T14:29:58.431Z,37.22
2023-07-18T14:31:21.448Z,37.40
2023-07-18T14:32:43.477Z,36.78
2023-07-18T14:34:07.553Z,36.91
2023-07-18T14:35:29.876Z,37.32
2023-07-18T14:36:52.865Z,36.94
2023-07-18T14:38:16.246Z,36.22
2023-07-18T14:39:40.623Z,37.37
2023-07-18T14:41:02.739Z,36.87
2023-07-18T14:42:25.675Z,36.74
2023-07-18T14:43:47.903Z,37.35
2023-07-18T14:45:11.764Z,37.57
2023-07-18T14:46:33.889Z,37.47
2023-07-18T14:47:56.941Z,37.22
2023-07-18T14:49:19.825Z,36.43
2023-07-18T14:50:43.243Z,36.08
2023-07-18T14:52:06.302Z,36.70
2023-07-18T14:53:30.578Z,36.77
2023-07-18T14:54:57.476Z,36.03
2023-07-18T14:56:20.766Z,37.01
2023-07-18T14:57:43.224Z,36.20
2023-07-18T14:59:06.620Z,35.76
2023-07-18T15:00:28.791Z,36.18
2023-07-18T15:01:52.085Z,35.29
2023-07-18T15:03:14.248Z,35.93
2023-07-18T15:04:37.380Z,37.10
2023-07-18T15:05:59.605Z,36.71
2023-07-18T15:07:22.676Z,36.55
2023-07-18T15:08:46.456Z,36.34
2023-07-18T15:10:10.142Z,36.40
2023-07-18T15:11:32.100Z,36.61
2023-07-18T15:12:55.179Z,36.17
2023-07-18T15:14:17.773Z,36.05
2023-07-18T15:15:41.350Z,35.90
2023-07-18T15:17:03.708Z,35.71
2023-07-18T15:18:26.705Z,36.10
2023-07-18T15:19:50.705Z,36.55
2023-07-18T15:21:14.438Z,36.61
2023-07-18T15:22:37.034Z,36.61
2023-07-18T15:24:01.768Z,36.48
2023-07-18T15:25:24.143Z,36.67
2023-07-18T15:26:47.088Z,36.20
2023-07-18T15:28:14.358Z,36.86
2023-07-18T15:29:36.309Z,36.63
2023-07-18T15:31:01.139Z,37.38
2023-07-18T15:32:23.177Z,36.61
2023-07-18T15:33:46.177Z,36.23
2023-07-18T15:35:08.614Z,36.46
2023-07-18T15:36:31.580Z,35.95
2023-07-18T15:37:53.549Z,36.59
2023-07-18T15:39:17.837Z,36.19
2023-07-18T15:40:40.455Z,36.85
2023-07-18T15:42:03.430Z,37.01
2023-07-18T15:43:25.467Z,36.37
2023-07-18T15:44:49.238Z,36.87
2023-07-18T15:46:11.262Z,37.33
2023-07-18T15:47:34.348Z,37.73
2023-07-18T15:48:56.303Z,37.99
2023-07-18T15:50:20.434Z,38.08
2023-07-18T15:51:43.789Z,38.04
2023-07-18T15:53:06.899Z,37.21
2023-07-18T15:54:30.262Z,37.07
2023-07-18T15:55:53.391Z,36.81
2023-07-18T15:57:16.587Z,36.82
2023-07-18T15:58:38.571Z,37.32
2023-07-18T16:00:01.484Z,37.05
2023-07-18T16:01:24.212Z,37.09
2023-07-18T16:02:47.286Z,37.56
2023-07-18T16:04:10.483Z,37.81
2023-07-18T16:05:33.693Z,38.27
2023-07-18T16:06:55.649Z,38.07
2023-07-18T16:08:18.601Z,37.64
2023-07-18T16:09:51.526Z,37.55
2023-07-18T16:11:15.083Z,37.88
2023-07-18T16:12:37.230Z,37.86
2023-07-18T16:14:00.359Z,37.48
2023-07-18T16:15:22.432Z,37.88
2023-07-18T16:16:45.579Z,37.48
2023-07-18T16:18:07.559Z,37.49
2023-07-18T16:19:30.627Z,36.97
2023-07-18T16:20:52.556Z,37.47
2023-07-18T16:22:17.868Z,37.53
2023-07-18T16:23:39.814Z,38.34
2023-07-18T16:25:09.122Z,38.35
2023-07-18T16:26:31.172Z,38.35
2023-07-18T16:27:54.111Z,38.32
2023-07-18T16:29:16.585Z,38.22
2023-07-18T16:30:39.522Z,37.85
2023-07-18T16:32:01.825Z,38.43
2023-07-18T16:33:25.056Z,37.90
2023-07-18T16:34:47.185Z,38.27
2023-07-18T16:36:10.384Z,38.00
2023-07-18T16:37:32.358Z,37.63
2023-07-18T16:38:55.333Z,37.77
2023-07-18T16:40:18.740Z,38.28
2023-07-18T16:41:42.226Z,38.37
2023-07-18T16:43:06.131Z,38.01
2023-07-18T16:44:29.183Z,37.97
2023-07-18T16:45:51.895Z,38.24
2023-07-18T16:47:15.058Z,37.60
2023-07-18T16:48:37.184Z,38.66
2023-07-18T16:50:00.746Z,38.73
2023-07-18T16:51:22.739Z,39.00
2023-07-18T16:52:47.632Z,38.90
2023-07-18T16:54:10.114Z,38.83
2023-07-18T16:55:34.328Z,39.56
2023-07-18T16:56:56.286Z,39.76
2023-07-18T16:58:19.257Z,39.89
2023-07-18T16:59:41.253Z,39.92
2023-07-18T17:01:05.193Z,40.33
2023-07-18T17:02:27.337Z,39.81
2023-07-18T17:03:50.528Z,40.28
2023-07-18T17:05:12.508Z,40.47
2023-07-18T17:06:35.475Z,40.31
2023-07-18T17:07:57.770Z,39.79
2023-07-18T17:09:20.711Z,40.00
2023-07-18T17:10:44.119Z,40.74
2023-07-18T17:12:08.073Z,40.87
2023-07-18T17:13:30.810Z,40.56
2023-07-18T17:14:53.743Z,40.80
2023-07-18T17:16:15.715Z,40.09
2023-07-18T17:17:39.242Z,40.36
2023-07-18T17:19:01.251Z,39.95
2023-07-18T17:20:24.448Z,40.25
2023-07-18T17:21:47.391Z,40.54
2023-07-18T17:23:11.030Z,40.78
2023-07-18T17:24:33.088Z,41.13
2023-07-18T17:26:00.548Z,40.05
2023-07-18T17:27:23.268Z,40.49
2023-07-18T17:28:46.183Z,40.97
2023-07-18T17:30:08.948Z,40.72
2023-07-18T17:31:32.204Z,40.66
2023-07-18T17:32:54.385Z,40.81
2023-07-18T17:34:17.717Z,41.54
2023-07-18T17:35:39.909Z,41.32
2023-07-18T17:37:03.005Z,41.61
2023-07-18T17:38:25.245Z,41.45
2023-07-18T17:39:50.754Z,41.53
2023-07-18T17:41:15.744Z,41.46
2023-07-18T17:42:37.973Z,42.25
2023-07-18T17:44:02.404Z,41.72
2023-07-18T17:45:24.401Z,41.25
2023-07-18T17:46:48.618Z,41.38
2023-07-18T17:48:10.672Z,41.80
2023-07-18T17:49:33.672Z,41.40
2023-07-18T17:50:55.643Z,41.48
2023-07-18T17:52:18.678Z,41.62
2023-07-18T17:53:40.643Z,42.25
2023-07-18T17:55:03.598Z,41.79
2023-07-18T17:56:27.276Z,42.10